McAndrews, Kentucky
Current Conditions -  °F | °C
As of 12:35 AM on Tuesday 27 Jan 2015 (Local Time) from KPBX Reporting Station
Overcast Overcast  
Wind Chill: 25°   Ceiling: 2400
Heat Index: 25°   Visibility: 10mi
Dew Point: 20°   Wind: 3mph
Humidity: 82%   Direction: 240°WSW
Pressure: 29.88"   Gusts: NA
Location:  37.57°N, 82.27°W
Report Text: KPBX 270535Z AUTO 24003KT 10SM SCT019 OVC024 M04/M06 A2988 RMK AO2 T10381065
Loading
Personal Weather Stations






























Interactive Weather Map New forecast layout! Learn more

10-Day Weather Forecast

Advertisements
Track Severe Weather on mobile